sensor_id;sensor_type;location;lat;lon;timestamp;temperature;humidity
76857;DHT22;69705;44.686;37.628;2024-01-25T00:01:39;6.51;79.30
76857;DHT22;69705;44.686;37.628;2024-01-25T00:04:06;6.51;78.28
76857;DHT22;69705;44.686;37.628;2024-01-25T00:06:33;6.54;78.47
76857;DHT22;69705;44.686;37.628;2024-01-25T00:08:59;6.55;76.98
76857;DHT22;69705;44.686;37.628;2024-01-25T00:11:28;6.59;76.48
76857;DHT22;69705;44.686;37.628;2024-01-25T00:13:58;6.59;76.40
76857;DHT22;69705;44.686;37.628;2024-01-25T00:16:25;6.64;76.70
76857;DHT22;69705;44.686;37.628;2024-01-25T00:18:51;6.67;76.70
76857;DHT22;69705;44.686;37.628;2024-01-25T00:21:18;6.72;76.54
76857;DHT22;69705;44.686;37.628;2024-01-25T00:23:45;6.78;75.84
76857;DHT22;69705;44.686;37.628;2024-01-25T00:26:12;6.78;75.46
76857;DHT22;69705;44.686;37.628;2024-01-25T00:28:39;6.79;75.94
76857;DHT22;69705;44.686;37.628;2024-01-25T00:31:06;6.79;76.15
76857;DHT22;69705;44.686;37.628;2024-01-25T00:33:33;6.83;77.10
76857;DHT22;69705;44.686;37.628;2024-01-25T00:36:00;6.82;75.73
76857;DHT22;69705;44.686;37.628;2024-01-25T00:38:27;6.84;76.05
76857;DHT22;69705;44.686;37.628;2024-01-25T00:40:54;6.88;76.53
76857;DHT22;69705;44.686;37.628;2024-01-25T00:43:22;6.89;75.17
76857;DHT22;69705;44.686;37.628;2024-01-25T00:45:49;6.90;73.44
76857;DHT22;69705;44.686;37.628;2024-01-25T00:48:16;6.93;73.61
76857;DHT22;69705;44.686;37.628;2024-01-25T00:50:43;6.93;72.80
76857;DHT22;69705;44.686;37.628;2024-01-25T00:53:09;6.93;73.30
76857;DHT22;69705;44.686;37.628;2024-01-25T00:55:36;6.93;72.05
76857;DHT22;69705;44.686;37.628;2024-01-25T00:58:03;6.93;71.64
76857;DHT22;69705;44.686;37.628;2024-01-25T01:00:30;6.94;71.74
76857;DHT22;69705;44.686;37.628;2024-01-25T01:02:58;6.98;71.35
76857;DHT22;69705;44.686;37.628;2024-01-25T01:05:26;6.99;69.92
76857;DHT22;69705;44.686;37.628;2024-01-25T01:07:53;6.99;70.98
76857;DHT22;69705;44.686;37.628;2024-01-25T01:10:20;6.95;71.46
76857;DHT22;69705;44.686;37.628;2024-01-25T01:12:47;6.94;71.90
76857;DHT22;69705;44.686;37.628;2024-01-25T01:15:13;6.90;71.96
76857;DHT22;69705;44.686;37.628;2024-01-25T01:17:40;6.90;71.58
76857;DHT22;69705;44.686;37.628;2024-01-25T01:20:07;6.90;72.63
76857;DHT22;69705;44.686;37.628;2024-01-25T01:22:34;6.96;72.63
76857;DHT22;69705;44.686;37.628;2024-01-25T01:25:01;6.95;73.49
76857;DHT22;69705;44.686;37.628;2024-01-25T01:27:29;6.95;73.45
76857;DHT22;69705;44.686;37.628;2024-01-25T01:29:56;6.96;71.23
76857;DHT22;69705;44.686;37.628;2024-01-25T01:32:23;6.96;72.29
76857;DHT22;69705;44.686;37.628;2024-01-25T01:34:50;6.96;72.89
76857;DHT22;69705;44.686;37.628;2024-01-25T01:37:16;6.96;71.90
76857;DHT22;69705;44.686;37.628;2024-01-25T01:39:43;6.97;71.83
76857;DHT22;69705;44.686;37.628;2024-01-25T01:42:10;7.00;71.19
76857;DHT22;69705;44.686;37.628;2024-01-25T01:44:37;6.99;71.96
76857;DHT22;69705;44.686;37.628;2024-01-25T01:47:03;7.01;73.48
76857;DHT22;69705;44.686;37.628;2024-01-25T01:49:30;7.03;73.61
76857;DHT22;69705;44.686;37.628;2024-01-25T01:51:57;7.08;73.59
76857;DHT22;69705;44.686;37.628;2024-01-25T01:54:24;7.05;74.59
76857;DHT22;69705;44.686;37.628;2024-01-25T01:56:52;7.07;74.25
76857;DHT22;69705;44.686;37.628;2024-01-25T01:59:19;7.04;74.36
76857;DHT22;69705;44.686;37.628;2024-01-25T02:01:47;7.03;75.17
76857;DHT22;69705;44.686;37.628;2024-01-25T02:04:13;7.01;73.54
76857;DHT22;69705;44.686;37.628;2024-01-25T02:06:42;7.01;73.10
76857;DHT22;69705;44.686;37.628;2024-01-25T02:09:09;7.00;73.12
76857;DHT22;69705;44.686;37.628;2024-01-25T02:11:36;6.97;74.18
76857;DHT22;69705;44.686;37.628;2024-01-25T02:14:03;6.99;74.77
76857;DHT22;69705;44.686;37.628;2024-01-25T02:16:30;6.99;75.41
76857;DHT22;69705;44.686;37.628;2024-01-25T02:18:56;6.97;75.41
76857;DHT22;69705;44.686;37.628;2024-01-25T02:21:23;7.00;75.71
76857;DHT22;69705;44.686;37.628;2024-01-25T02:23:50;7.00;74.71
76857;DHT22;69705;44.686;37.628;2024-01-25T02:26:17;7.03;74.66
76857;DHT22;69705;44.686;37.628;2024-01-25T02:28:44;7.03;74.41
76857;DHT22;69705;44.686;37.628;2024-01-25T02:31:10;7.03;74.22
76857;DHT22;69705;44.686;37.628;2024-01-25T02:33:37;7.04;74.24
76857;DHT22;69705;44.686;37.628;2024-01-25T02:36:04;7.01;74.44
76857;DHT22;69705;44.686;37.628;2024-01-25T02:38:32;7.04;74.24
76857;DHT22;69705;44.686;37.628;2024-01-25T02:40:59;7.03;74.60
76857;DHT22;69705;44.686;37.628;2024-01-25T02:43:25;7.02;72.31
76857;DHT22;69705;44.686;37.628;2024-01-25T02:45:53;7.01;73.07
76857;DHT22;69705;44.686;37.628;2024-01-25T02:48:20;7.00;73.19
76857;DHT22;69705;44.686;37.628;2024-01-25T02:50:47;6.99;73.69
76857;DHT22;69705;44.686;37.628;2024-01-25T02:53:13;6.98;73.12
76857;DHT22;69705;44.686;37.628;2024-01-25T02:55:40;6.98;73.32
76857;DHT22;69705;44.686;37.628;2024-01-25T02:58:07;6.98;73.72
76857;DHT22;69705;44.686;37.628;2024-01-25T03:00:33;7.00;73.12
76857;DHT22;69705;44.686;37.628;2024-01-25T03:03:00;6.99;73.76
76857;DHT22;69705;44.686;37.628;2024-01-25T03:05:26;7.00;73.88
76857;DHT22;69705;44.686;37.628;2024-01-25T03:07:53;7.03;72.60
76857;DHT22;69705;44.686;37.628;2024-01-25T03:10:20;7.05;72.86
76857;DHT22;69705;44.686;37.628;2024-01-25T03:12:46;7.07;73.32
76857;DHT22;69705;44.686;37.628;2024-01-25T03:15:13;7.04;72.46
76857;DHT22;69705;44.686;37.628;2024-01-25T03:17:41;7.04;73.32
76857;DHT22;69705;44.686;37.628;2024-01-25T03:20:08;7.03;73.08
76857;DHT22;69705;44.686;37.628;2024-01-25T03:22:35;7.05;73.84
76857;DHT22;69705;44.686;37.628;2024-01-25T03:25:02;7.09;73.37
76857;DHT22;69705;44.686;37.628;2024-01-25T03:27:28;7.11;73.19
76857;DHT22;69705;44.686;37.628;2024-01-25T03:29:55;7.12;73.18
76857;DHT22;69705;44.686;37.628;2024-01-25T03:32:22;7.12;73.08
76857;DHT22;69705;44.686;37.628;2024-01-25T03:34:49;7.09;72.90
76857;DHT22;69705;44.686;37.628;2024-01-25T03:37:15;7.11;72.71
76857;DHT22;69705;44.686;37.628;2024-01-25T03:39:42;7.10;73.14
76857;DHT22;69705;44.686;37.628;2024-01-25T03:42:09;7.11;73.31
76857;DHT22;69705;44.686;37.628;2024-01-25T03:44:36;7.14;72.85
76857;DHT22;69705;44.686;37.628;2024-01-25T03:47:03;7.14;72.48
76857;DHT22;69705;44.686;37.628;2024-01-25T03:49:30;7.14;72.88
76857;DHT22;69705;44.686;37.628;2024-01-25T03:51:57;7.13;72.40
76857;DHT22;69705;44.686;37.628;2024-01-25T03:54:24;7.12;71.92
76857;DHT22;69705;44.686;37.628;2024-01-25T03:56:51;7.10;73.59
76857;DHT22;69705;44.686;37.628;2024-01-25T03:59:18;7.09;74.41
76857;DHT22;69705;44.686;37.628;2024-01-25T04:01:47;7.09;72.92
76857;DHT22;69705;44.686;37.628;2024-01-25T04:04:14;7.08;73.48
76857;DHT22;69705;44.686;37.628;2024-01-25T04:06:44;7.04;73.37
76857;DHT22;69705;44.686;37.628;2024-01-25T04:09:14;7.03;73.22
76857;DHT22;69705;44.686;37.628;2024-01-25T04:11:41;7.00;72.83
76857;DHT22;69705;44.686;37.628;2024-01-25T04:14:08;6.97;72.60
76857;DHT22;69705;44.686;37.628;2024-01-25T04:16:35;6.98;72.66
76857;DHT22;69705;44.686;37.628;2024-01-25T04:19:02;6.96;72.83
76857;DHT22;69705;44.686;37.628;2024-01-25T04:21:29;6.96;73.06
76857;DHT22;69705;44.686;37.628;2024-01-25T04:23:56;6.96;74.37
76857;DHT22;69705;44.686;37.628;2024-01-25T04:26:23;6.95;73.62
76857;DHT22;69705;44.686;37.628;2024-01-25T04:28:50;6.95;73.96
76857;DHT22;69705;44.686;37.628;2024-01-25T04:31:17;6.91;74.66
76857;DHT22;69705;44.686;37.628;2024-01-25T04:33:45;6.91;75.60
76857;DHT22;69705;44.686;37.628;2024-01-25T04:36:11;6.90;75.38
76857;DHT22;69705;44.686;37.628;2024-01-25T04:38:38;6.89;75.13
76857;DHT22;69705;44.686;37.628;2024-01-25T04:41:05;6.87;75.68
76857;DHT22;69705;44.686;37.628;2024-01-25T04:43:36;6.88;76.26
76857;DHT22;69705;44.686;37.628;2024-01-25T04:46:03;6.87;75.90
76857;DHT22;69705;44.686;37.628;2024-01-25T04:48:30;6.88;75.46
76857;DHT22;69705;44.686;37.628;2024-01-25T04:50:57;6.89;75.21
76857;DHT22;69705;44.686;37.628;2024-01-25T04:53:27;6.88;74.96
76857;DHT22;69705;44.686;37.628;2024-01-25T04:55:54;6.88;75.04
76857;DHT22;69705;44.686;37.628;2024-01-25T04:58:21;6.93;75.74
76857;DHT22;69705;44.686;37.628;2024-01-25T05:00:48;6.94;75.62
76857;DHT22;69705;44.686;37.628;2024-01-25T05:03:16;6.93;75.67
76857;DHT22;69705;44.686;37.628;2024-01-25T05:05:43;6.95;74.39
76857;DHT22;69705;44.686;37.628;2024-01-25T05:08:09;6.93;73.66
76857;DHT22;69705;44.686;37.628;2024-01-25T05:10:36;6.96;73.76
76857;DHT22;69705;44.686;37.628;2024-01-25T05:13:03;6.95;74.64
76857;DHT22;69705;44.686;37.628;2024-01-25T05:15:29;6.99;75.28
76857;DHT22;69705;44.686;37.628;2024-01-25T05:17:56;7.02;76.09
76857;DHT22;69705;44.686;37.628;2024-01-25T05:20:23;7.02;76.60
76857;DHT22;69705;44.686;37.628;2024-01-25T05:22:49;7.03;76.47
76857;DHT22;69705;44.686;37.628;2024-01-25T05:25:16;7.03;76.04
76857;DHT22;69705;44.686;37.628;2024-01-25T05:27:43;7.05;75.60
76857;DHT22;69705;44.686;37.628;2024-01-25T05:30:09;7.07;76.28
76857;DHT22;69705;44.686;37.628;2024-01-25T05:32:37;7.11;76.45
76857;DHT22;69705;44.686;37.628;2024-01-25T05:35:04;7.10;75.91
76857;DHT22;69705;44.686;37.628;2024-01-25T05:37:31;7.11;75.84
76857;DHT22;69705;44.686;37.628;2024-01-25T05:39:58;7.12;75.75
76857;DHT22;69705;44.686;37.628;2024-01-25T05:42:25;7.14;75.42
76857;DHT22;69705;44.686;37.628;2024-01-25T05:44:52;7.12;75.55
76857;DHT22;69705;44.686;37.628;2024-01-25T05:47:19;7.12;75.62
76857;DHT22;69705;44.686;37.628;2024-01-25T05:49:46;7.16;76.06
76857;DHT22;69705;44.686;37.628;2024-01-25T05:52:13;7.22;75.69
76857;DHT22;69705;44.686;37.628;2024-01-25T05:54:40;7.25;74.96
76857;DHT22;69705;44.686;37.628;2024-01-25T05:57:07;7.30;74.41
76857;DHT22;69705;44.686;37.628;2024-01-25T05:59:34;7.33;73.99
76857;DHT22;69705;44.686;37.628;2024-01-25T06:02:01;7.38;75.15
76857;DHT22;69705;44.686;37.628;2024-01-25T06:04:28;7.42;76.19
76857;DHT22;69705;44.686;37.628;2024-01-25T06:06:55;7.47;75.13
76857;DHT22;69705;44.686;37.628;2024-01-25T06:09:23;7.47;74.47
76857;DHT22;69705;44.686;37.628;2024-01-25T06:11:51;7.50;75.26
76857;DHT22;69705;44.686;37.628;2024-01-25T06:14:18;7.54;75.56
76857;DHT22;69705;44.686;37.628;2024-01-25T06:16:45;7.55;74.35
76857;DHT22;69705;44.686;37.628;2024-01-25T06:19:11;7.54;74.84
76857;DHT22;69705;44.686;37.628;2024-01-25T06:21:38;7.54;74.25
76857;DHT22;69705;44.686;37.628;2024-01-25T06:24:06;7.61;74.64
76857;DHT22;69705;44.686;37.628;2024-01-25T06:26:33;7.60;74.76
76857;DHT22;69705;44.686;37.628;2024-01-25T06:29:00;7.62;75.20
76857;DHT22;69705;44.686;37.628;2024-01-25T06:31:26;7.61;74.38
76857;DHT22;69705;44.686;37.628;2024-01-25T06:33:54;7.61;73.64
76857;DHT22;69705;44.686;37.628;2024-01-25T06:36:21;7.62;74.10
76857;DHT22;69705;44.686;37.628;2024-01-25T06:38:48;7.71;74.63
76857;DHT22;69705;44.686;37.628;2024-01-25T06:41:14;7.77;73.86
76857;DHT22;69705;44.686;37.628;2024-01-25T06:43:42;7.83;74.31
76857;DHT22;69705;44.686;37.628;2024-01-25T06:46:09;7.86;73.96
76857;DHT22;69705;44.686;37.628;2024-01-25T06:48:37;7.94;74.22
76857;DHT22;69705;44.686;37.628;2024-01-25T06:51:03;8.04;75.21
76857;DHT22;69705;44.686;37.628;2024-01-25T06:53:31;8.14;74.64
76857;DHT22;69705;44.686;37.628;2024-01-25T06:55:57;8.21;74.33
76857;DHT22;69705;44.686;37.628;2024-01-25T06:58:24;8.30;73.86
76857;DHT22;69705;44.686;37.628;2024-01-25T07:00:51;8.32;71.15
76857;DHT22;69705;44.686;37.628;2024-01-25T07:03:19;8.33;73.06
76857;DHT22;69705;44.686;37.628;2024-01-25T07:05:46;8.36;72.31
76857;DHT22;69705;44.686;37.628;2024-01-25T07:08:13;8.42;71.23
76857;DHT22;69705;44.686;37.628;2024-01-25T07:10:40;8.48;72.09
76857;DHT22;69705;44.686;37.628;2024-01-25T07:13:07;8.43;72.48
76857;DHT22;69705;44.686;37.628;2024-01-25T07:15:34;8.43;72.41
76857;DHT22;69705;44.686;37.628;2024-01-25T07:18:01;8.42;70.38
76857;DHT22;69705;44.686;37.628;2024-01-25T07:20:28;8.42;70.81
76857;DHT22;69705;44.686;37.628;2024-01-25T07:22:56;8.46;70.88
76857;DHT22;69705;44.686;37.628;2024-01-25T07:25:22;8.46;71.68
76857;DHT22;69705;44.686;37.628;2024-01-25T07:27:50;8.42;69.96
76857;DHT22;69705;44.686;37.628;2024-01-25T07:30:17;8.42;69.56
76857;DHT22;69705;44.686;37.628;2024-01-25T07:32:44;8.42;70.49
76857;DHT22;69705;44.686;37.628;2024-01-25T07:35:13;8.43;71.26
76857;DHT22;69705;44.686;37.628;2024-01-25T07:37:40;8.45;70.60
76857;DHT22;69705;44.686;37.628;2024-01-25T07:40:09;8.47;71.02
76857;DHT22;69705;44.686;37.628;2024-01-25T07:42:36;8.43;71.32
76857;DHT22;69705;44.686;37.628;2024-01-25T07:45:04;8.44;71.90
76857;DHT22;69705;44.686;37.628;2024-01-25T07:47:31;8.43;71.73
76857;DHT22;69705;44.686;37.628;2024-01-25T07:49:58;8.43;72.13
76857;DHT22;69705;44.686;37.628;2024-01-25T07:52:24;8.44;72.82
76857;DHT22;69705;44.686;37.628;2024-01-25T07:54:51;8.47;72.01
76857;DHT22;69705;44.686;37.628;2024-01-25T07:57:19;8.51;72.47
76857;DHT22;69705;44.686;37.628;2024-01-25T07:59:46;8.51;72.83
76857;DHT22;69705;44.686;37.628;2024-01-25T08:02:13;8.55;73.95
76857;DHT22;69705;44.686;37.628;2024-01-25T08:04:40;8.59;72.80
76857;DHT22;69705;44.686;37.628;2024-01-25T08:07:07;8.57;72.29
76857;DHT22;69705;44.686;37.628;2024-01-25T08:09:35;8.52;72.97
76857;DHT22;69705;44.686;37.628;2024-01-25T08:12:02;8.46;73.98
76857;DHT22;69705;44.686;37.628;2024-01-25T08:14:29;8.45;74.30
76857;DHT22;69705;44.686;37.628;2024-01-25T08:16:56;8.41;74.71
76857;DHT22;69705;44.686;37.628;2024-01-25T08:19:23;8.41;73.99
76857;DHT22;69705;44.686;37.628;2024-01-25T08:21:49;8.42;74.36
76857;DHT22;69705;44.686;37.628;2024-01-25T08:24:16;8.44;73.69
76857;DHT22;69705;44.686;37.628;2024-01-25T08:26:43;8.46;73.92
76857;DHT22;69705;44.686;37.628;2024-01-25T08:29:10;8.41;74.41
76857;DHT22;69705;44.686;37.628;2024-01-25T08:31:37;8.37;74.63
76857;DHT22;69705;44.686;37.628;2024-01-25T08:34:04;8.43;74.70
76857;DHT22;69705;44.686;37.628;2024-01-25T08:36:32;8.48;74.51
76857;DHT22;69705;44.686;37.628;2024-01-25T08:38:59;8.51;74.93
76857;DHT22;69705;44.686;37.628;2024-01-25T08:41:25;8.47;73.28
76857;DHT22;69705;44.686;37.628;2024-01-25T08:43:52;8.47;73.03
76857;DHT22;69705;44.686;37.628;2024-01-25T08:46:20;8.51;73.84
76857;DHT22;69705;44.686;37.628;2024-01-25T08:48:46;8.49;75.03
76857;DHT22;69705;44.686;37.628;2024-01-25T08:51:13;8.48;74.73
76857;DHT22;69705;44.686;37.628;2024-01-25T08:53:39;8.46;75.21
76857;DHT22;69705;44.686;37.628;2024-01-25T08:56:06;8.45;75.43
76857;DHT22;69705;44.686;37.628;2024-01-25T08:58:33;8.41;75.09
76857;DHT22;69705;44.686;37.628;2024-01-25T09:00:59;8.39;75.35
76857;DHT22;69705;44.686;37.628;2024-01-25T09:03:26;8.35;75.11
76857;DHT22;69705;44.686;37.628;2024-01-25T09:05:53;8.35;75.05
76857;DHT22;69705;44.686;37.628;2024-01-25T09:08:19;8.32;75.07
76857;DHT22;69705;44.686;37.628;2024-01-25T09:10:46;8.28;74.46
76857;DHT22;69705;44.686;37.628;2024-01-25T09:13:13;8.24;75.91
76857;DHT22;69705;44.686;37.628;2024-01-25T09:15:39;8.16;78.93
76857;DHT22;69705;44.686;37.628;2024-01-25T09:18:06;7.74;82.84
76857;DHT22;69705;44.686;37.628;2024-01-25T09:20:33;7.35;86.09
76857;DHT22;69705;44.686;37.628;2024-01-25T09:22:59;7.11;88.25
76857;DHT22;69705;44.686;37.628;2024-01-25T09:25:26;6.99;88.21
76857;DHT22;69705;44.686;37.628;2024-01-25T09:27:53;6.88;88.02
76857;DHT22;69705;44.686;37.628;2024-01-25T09:30:19;6.86;89.38
76857;DHT22;69705;44.686;37.628;2024-01-25T09:32:46;6.83;88.32
76857;DHT22;69705;44.686;37.628;2024-01-25T09:35:13;6.78;88.45
76857;DHT22;69705;44.686;37.628;2024-01-25T09:37:40;6.69;87.82
76857;DHT22;69705;44.686;37.628;2024-01-25T09:40:07;6.63;82.08
76857;DHT22;69705;44.686;37.628;2024-01-25T09:42:34;6.67;82.92
76857;DHT22;69705;44.686;37.628;2024-01-25T09:45:08;6.68;85.75
76857;DHT22;69705;44.686;37.628;2024-01-25T09:47:37;6.71;87.05
76857;DHT22;69705;44.686;37.628;2024-01-25T09:50:05;6.82;87.70
76857;DHT22;69705;44.686;37.628;2024-01-25T09:52:33;6.88;87.52
76857;DHT22;69705;44.686;37.628;2024-01-25T09:55:01;6.97;87.64
76857;DHT22;69705;44.686;37.628;2024-01-25T09:57:28;7.01;88.11
76857;DHT22;69705;44.686;37.628;2024-01-25T09:59:56;7.04;88.06
76857;DHT22;69705;44.686;37.628;2024-01-25T10:02:23;7.03;88.91
76857;DHT22;69705;44.686;37.628;2024-01-25T10:04:50;6.98;90.06
76857;DHT22;69705;44.686;37.628;2024-01-25T10:07:37;6.90;88.09
76857;DHT22;69705;44.686;37.628;2024-01-25T10:10:04;6.90;86.60
76857;DHT22;69705;44.686;37.628;2024-01-25T10:12:32;6.93;90.39
76857;DHT22;69705;44.686;37.628;2024-01-25T10:14:59;6.99;88.18
76857;DHT22;69705;44.686;37.628;2024-01-25T10:17:27;7.02;87.22
76857;DHT22;69705;44.686;37.628;2024-01-25T10:19:54;7.05;87.11
76857;DHT22;69705;44.686;37.628;2024-01-25T10:22:21;7.16;87.98
76857;DHT22;69705;44.686;37.628;2024-01-25T10:24:48;7.23;88.46
76857;DHT22;69705;44.686;37.628;2024-01-25T10:27:21;7.30;85.55
76857;DHT22;69705;44.686;37.628;2024-01-25T10:29:49;7.39;87.00
76857;DHT22;69705;44.686;37.628;2024-01-25T10:32:18;7.39;87.01
76857;DHT22;69705;44.686;37.628;2024-01-25T10:34:46;7.38;85.24
76857;DHT22;69705;44.686;37.628;2024-01-25T10:37:14;7.32;85.56
76857;DHT22;69705;44.686;37.628;2024-01-25T10:39:42;7.30;84.89
76857;DHT22;69705;44.686;37.628;2024-01-25T10:42:10;7.26;84.68
76857;DHT22;69705;44.686;37.628;2024-01-25T10:44:37;7.24;85.67
76857;DHT22;69705;44.686;37.628;2024-01-25T10:47:05;7.22;85.25
76857;DHT22;69705;44.686;37.628;2024-01-25T10:49:33;7.15;85.98
76857;DHT22;69705;44.686;37.628;2024-01-25T10:52:01;7.08;84.56
76857;DHT22;69705;44.686;37.628;2024-01-25T10:54:30;7.05;86.12
76857;DHT22;69705;44.686;37.628;2024-01-25T10:56:58;7.07;85.88
76857;DHT22;69705;44.686;37.628;2024-01-25T10:59:25;7.07;84.71
76857;DHT22;69705;44.686;37.628;2024-01-25T11:01:54;7.07;85.93
76857;DHT22;69705;44.686;37.628;2024-01-25T11:04:21;7.11;85.21
76857;DHT22;69705;44.686;37.628;2024-01-25T11:06:49;7.16;85.09
76857;DHT22;69705;44.686;37.628;2024-01-25T11:09:20;7.26;87.17
76857;DHT22;69705;44.686;37.628;2024-01-25T11:11:48;7.34;86.06
76857;DHT22;69705;44.686;37.628;2024-01-25T11:14:15;7.40;85.84
76857;DHT22;69705;44.686;37.628;2024-01-25T11:16:45;7.37;84.61
76857;DHT22;69705;44.686;37.628;2024-01-25T11:19:18;7.27;83.57
76857;DHT22;69705;44.686;37.628;2024-01-25T11:21:46;7.22;84.22
76857;DHT22;69705;44.686;37.628;2024-01-25T11:24:19;7.20;82.09
76857;DHT22;69705;44.686;37.628;2024-01-25T11:26:46;7.16;82.40
76857;DHT22;69705;44.686;37.628;2024-01-25T11:29:17;7.18;84.74
76857;DHT22;69705;44.686;37.628;2024-01-25T11:31:45;7.10;78.92
76857;DHT22;69705;44.686;37.628;2024-01-25T11:34:13;7.12;82.82
76857;DHT22;69705;44.686;37.628;2024-01-25T11:36:42;7.12;78.12
76857;DHT22;69705;44.686;37.628;2024-01-25T11:39:09;7.15;74.18
76857;DHT22;69705;44.686;37.628;2024-01-25T11:41:38;7.19;79.29
76857;DHT22;69705;44.686;37.628;2024-01-25T11:44:05;7.26;79.06
76857;DHT22;69705;44.686;37.628;2024-01-25T11:46:32;7.34;78.51
76857;DHT22;69705;44.686;37.628;2024-01-25T11:49:00;7.42;77.95
76857;DHT22;69705;44.686;37.628;2024-01-25T11:51:27;7.52;80.49
76857;DHT22;69705;44.686;37.628;2024-01-25T11:53:54;7.60;79.77
76857;DHT22;69705;44.686;37.628;2024-01-25T11:56:32;7.73;81.59
76857;DHT22;69705;44.686;37.628;2024-01-25T11:59:00;7.84;81.49
76857;DHT22;69705;44.686;37.628;2024-01-25T12:01:28;7.89;78.63
76857;DHT22;69705;44.686;37.628;2024-01-25T12:03:56;7.93;78.81
76857;DHT22;69705;44.686;37.628;2024-01-25T12:06:23;8.02;77.73
76857;DHT22;69705;44.686;37.628;2024-01-25T12:08:50;8.00;77.53
76857;DHT22;69705;44.686;37.628;2024-01-25T12:11:18;8.03;77.54
76857;DHT22;69705;44.686;37.628;2024-01-25T12:13:45;8.09;79.73
76857;DHT22;69705;44.686;37.628;2024-01-25T12:16:12;8.14;79.96
76857;DHT22;69705;44.686;37.628;2024-01-25T12:18:41;8.11;80.94
76857;DHT22;69705;44.686;37.628;2024-01-25T12:21:09;8.12;81.50
76857;DHT22;69705;44.686;37.628;2024-01-25T12:23:37;8.13;80.02
76857;DHT22;69705;44.686;37.628;2024-01-25T12:26:07;8.08;77.18
76857;DHT22;69705;44.686;37.628;2024-01-25T12:28:35;8.09;77.54
76857;DHT22;69705;44.686;37.628;2024-01-25T12:31:05;8.13;77.09
76857;DHT22;69705;44.686;37.628;2024-01-25T12:33:33;8.16;76.97
76857;DHT22;69705;44.686;37.628;2024-01-25T12:36:03;8.23;78.65
76857;DHT22;69705;44.686;37.628;2024-01-25T12:38:31;8.22;75.43
76857;DHT22;69705;44.686;37.628;2024-01-25T12:41:00;8.29;76.88
76857;DHT22;69705;44.686;37.628;2024-01-25T12:43:27;8.29;75.69
76857;DHT22;69705;44.686;37.628;2024-01-25T12:45:54;8.31;76.41
76857;DHT22;69705;44.686;37.628;2024-01-25T12:48:20;8.32;76.82
76857;DHT22;69705;44.686;37.628;2024-01-25T12:50:47;8.29;75.77
76857;DHT22;69705;44.686;37.628;2024-01-25T12:53:14;8.29;75.34
76857;DHT22;69705;44.686;37.628;2024-01-25T12:55:42;8.28;76.22
76857;DHT22;69705;44.686;37.628;2024-01-25T12:58:08;8.30;75.09
76857;DHT22;69705;44.686;37.628;2024-01-25T13:00:35;8.27;74.22
76857;DHT22;69705;44.686;37.628;2024-01-25T13:03:02;8.24;73.91
76857;DHT22;69705;44.686;37.628;2024-01-25T13:05:29;8.24;72.92
76857;DHT22;69705;44.686;37.628;2024-01-25T13:08:01;8.24;71.68
76857;DHT22;69705;44.686;37.628;2024-01-25T13:10:28;8.24;73.66
76857;DHT22;69705;44.686;37.628;2024-01-25T13:12:55;8.24;74.48
76857;DHT22;69705;44.686;37.628;2024-01-25T13:15:22;8.24;75.47
76857;DHT22;69705;44.686;37.628;2024-01-25T13:17:48;8.26;74.09
76857;DHT22;69705;44.686;37.628;2024-01-25T13:20:15;8.27;74.18
76857;DHT22;69705;44.686;37.628;2024-01-25T13:22:42;8.24;73.28
76857;DHT22;69705;44.686;37.628;2024-01-25T13:25:08;8.23;73.88
76857;DHT22;69705;44.686;37.628;2024-01-25T13:27:37;8.21;72.70
76857;DHT22;69705;44.686;37.628;2024-01-25T13:30:04;8.22;71.52
76857;DHT22;69705;44.686;37.628;2024-01-25T13:32:31;8.24;72.22
76857;DHT22;69705;44.686;37.628;2024-01-25T13:34:58;8.24;71.83
76857;DHT22;69705;44.686;37.628;2024-01-25T13:37:24;8.29;71.61
76857;DHT22;69705;44.686;37.628;2024-01-25T13:39:51;8.22;69.61
76857;DHT22;69705;44.686;37.628;2024-01-25T13:42:18;8.23;70.44
76857;DHT22;69705;44.686;37.628;2024-01-25T13:44:44;8.23;68.78
76857;DHT22;69705;44.686;37.628;2024-01-25T13:47:12;8.22;69.34
76857;DHT22;69705;44.686;37.628;2024-01-25T13:49:38;8.21;70.80
76857;DHT22;69705;44.686;37.628;2024-01-25T13:52:05;8.20;70.65
76857;DHT22;69705;44.686;37.628;2024-01-25T13:54:32;8.20;71.51
76857;DHT22;69705;44.686;37.628;2024-01-25T13:56:59;8.20;71.67
76857;DHT22;69705;44.686;37.628;2024-01-25T13:59:26;8.20;71.90
76857;DHT22;69705;44.686;37.628;2024-01-25T14:01:53;8.20;71.84
76857;DHT22;69705;44.686;37.628;2024-01-25T14:04:20;8.21;71.70
76857;DHT22;69705;44.686;37.628;2024-01-25T14:06:46;8.20;72.92
76857;DHT22;69705;44.686;37.628;2024-01-25T14:09:13;8.19;73.55
76857;DHT22;69705;44.686;37.628;2024-01-25T14:11:40;8.19;72.91
76857;DHT22;69705;44.686;37.628;2024-01-25T14:14:06;8.19;72.95
76857;DHT22;69705;44.686;37.628;2024-01-25T14:16:33;8.18;73.47
76857;DHT22;69705;44.686;37.628;2024-01-25T14:19:00;8.17;74.40
76857;DHT22;69705;44.686;37.628;2024-01-25T14:21:30;8.20;74.26
76857;DHT22;69705;44.686;37.628;2024-01-25T14:23:57;8.20;74.80
76857;DHT22;69705;44.686;37.628;2024-01-25T14:26:24;8.21;74.56
76857;DHT22;69705;44.686;37.628;2024-01-25T14:28:51;8.20;75.20
76857;DHT22;69705;44.686;37.628;2024-01-25T14:31:17;8.22;75.50
76857;DHT22;69705;44.686;37.628;2024-01-25T14:33:44;8.23;76.20
76857;DHT22;69705;44.686;37.628;2024-01-25T14:36:11;8.26;76.52
76857;DHT22;69705;44.686;37.628;2024-01-25T14:38:38;8.24;75.40
76857;DHT22;69705;44.686;37.628;2024-01-25T14:41:08;8.27;75.96
76857;DHT22;69705;44.686;37.628;2024-01-25T14:43:37;8.27;75.48
76857;DHT22;69705;44.686;37.628;2024-01-25T14:46:05;8.27;75.93
76857;DHT22;69705;44.686;37.628;2024-01-25T14:48:33;8.29;76.72
76857;DHT22;69705;44.686;37.628;2024-01-25T14:52:00;8.28;75.83
76857;DHT22;69705;44.686;37.628;2024-01-25T14:54:27;8.30;74.50
76857;DHT22;69705;44.686;37.628;2024-01-25T14:56:53;8.28;72.41
76857;DHT22;69705;44.686;37.628;2024-01-25T14:59:20;8.30;71.30
76857;DHT22;69705;44.686;37.628;2024-01-25T15:01:47;8.28;71.22
76857;DHT22;69705;44.686;37.628;2024-01-25T15:04:14;8.24;71.03
76857;DHT22;69705;44.686;37.628;2024-01-25T15:06:43;8.27;71.52
76857;DHT22;69705;44.686;37.628;2024-01-25T15:09:10;8.29;73.19
76857;DHT22;69705;44.686;37.628;2024-01-25T15:11:37;8.31;72.38
76857;DHT22;69705;44.686;37.628;2024-01-25T15:14:03;8.32;71.67
76857;DHT22;69705;44.686;37.628;2024-01-25T15:16:30;8.30;71.67
76857;DHT22;69705;44.686;37.628;2024-01-25T15:18:57;8.33;72.06
76857;DHT22;69705;44.686;37.628;2024-01-25T15:21:24;8.33;72.80
76857;DHT22;69705;44.686;37.628;2024-01-25T15:23:51;8.33;73.09
76857;DHT22;69705;44.686;37.628;2024-01-25T15:26:18;8.33;73.69
76857;DHT22;69705;44.686;37.628;2024-01-25T15:28:45;8.31;75.79
76857;DHT22;69705;44.686;37.628;2024-01-25T15:31:11;8.32;75.61